Etusivu
METAR-TAF:

METAR-TAF

Lentoasemat :

Burgos, Espanja

Leveyspiiri: 42-22N, Pituuspiiri: 003-38W, korkeus merenpinnasta: 894 m

Tämänhetkinen sää

Tämä raportti tehtiin 26 minuuttia sitten, kello 18.30 UTC
Tuuli 8 kn koillisesta
Lämpötila 12°C
Kosteus 76%
Ilmanpaine 1016 hPa
Näkyvyys 10 km tai enemmän

METAR: LEBG 261830Z AUTO 04008KT 9999 NCD 12/08 Q1016

Aika: 20:56 (18:56 UTC)

Sääennuste

Tämä raportti tehtiin 1 tunti ja 56 minuuttia sitten, kello 17.00 UTC
Ennuste voimassa 26. päivästä klo 18 UTC - 27. päivään klo 03 UTC
Tuuli 12 kn koillisesta
Näkyvyys 10 km tai enemmän
ei pilviä alle 1500 m:ssä eikä cumulonimbus-pilviä
Tulossa
26. päivästä klo 19 UTC - 26. päivään klo 21 UTC
Tuuli 7 kn etelästä/lounaasta

TAF: LEBG 261700Z 2618/2703 04012KT CAVOK BECMG 2619/2621 21007KT

Säähavainnot ja -ennusteet yli 4000 lentoasemalta (METAR- ja TAF-raportit).

Käytössä olevat sääasemat on merkitty karttaan keltaisilla ja punaisilla pisteillä.

Aseta hiiri pisteen päälle nähdäksesi sääaseman nimen.

Klikkaa sitten nähdäksesi säähavainnot ja -ennusteet.

Kartan vaihtaminen: klikkaa mustalla rastilla varustettuja vihreitä pisteitä, niin voit zoomata sisään; viivalla varustettua vihreää pistettä, niin voit zoomata ulos tai vihreitä nuolia, niin pääset viereisille kartoille.


METAR-TAF: